Time;durP1;ratioP1;P1;durP2;ratioP2;P2;SDS_P1;SDS_P2;PMS_P1;PMS_P2;Temp;Humidity;BMP_temperature;BMP_pressure;BME280_temperature;BME280_humidity;BME280_pressure;Samples;Min_cycle;Max_cycle;Signal;HPM_P1;HPM_P2
2022/04/19 00:00:38;;;;;;;8.20;4.78;;;8.40;50.60;;;;;;5052737;28;20029;-76
2022/04/19 00:03:05;;;;;;;9.55;4.53;;;8.40;50.50;;;;;;5052988;28;20226;-75
2022/04/19 00:05:32;;;;;;;7.30;4.10;;;8.30;50.70;;;;;;5052696;28;20146;-76
2022/04/19 00:07:58;;;;;;;11.75;5.43;;;8.30;51.60;;;;;;5052481;28;20040;-76
2022/04/19 00:10:28;;;;;;;9.98;4.70;;;8.20;50.90;;;;;;5052612;28;20047;-76
2022/04/19 00:12:57;;;;;;;8.38;4.55;;;8.10;51.40;;;;;;5052641;28;20136;-76
2022/04/19 00:15:24;;;;;;;7.72;4.32;;;8.00;51.60;;;;;;5052594;28;20074;-76
2022/04/19 00:17:50;;;;;;;8.23;4.32;;;7.90;51.90;;;;;;5052425;28;20421;-77
2022/04/19 00:20:15;;;;;;;8.77;4.80;;;7.90;52.10;;;;;;5056637;28;20021;-77
2022/04/19 00:22:41;;;;;;;7.10;4.03;;;7.90;52.20;;;;;;5056668;28;20029;-76
2022/04/19 00:25:07;;;;;;;9.88;4.15;;;7.70;52.50;;;;;;5056586;28;20029;-76
2022/04/19 00:27:34;;;;;;;7.60;4.30;;;7.70;52.50;;;;;;5056555;28;20021;-76
2022/04/19 00:30:00;;;;;;;8.32;4.60;;;7.70;52.60;;;;;;5056576;28;20021;-76
2022/04/19 00:32:25;;;;;;;9.20;4.22;;;7.50;53.00;;;;;;5056349;28;20032;-76
2022/04/19 00:34:51;;;;;;;8.93;3.97;;;7.40;53.40;;;;;;5056357;28;20107;-77
2022/04/19 00:37:18;;;;;;;8.25;4.28;;;7.30;53.80;;;;;;5056297;28;20593;-77
2022/04/19 00:39:44;;;;;;;8.15;4.07;;;7.30;54.10;;;;;;5056487;28;20548;-76
2022/04/19 00:42:10;;;;;;;8.52;4.68;;;7.20;54.30;;;;;;5056180;28;20021;-77
2022/04/19 00:44:39;;;;;;;7.72;4.38;;;7.10;54.60;;;;;;5056303;28;20387;-77
2022/04/19 00:47:07;;;;;;;9.73;4.78;;;7.20;54.40;;;;;;5056138;28;20017;-76
2022/04/19 00:49:34;;;;;;;6.55;3.75;;;7.10;54.40;;;;;;5056115;28;20017;-76
2022/04/19 00:52:00;;;;;;;8.43;4.35;;;7.00;54.70;;;;;;5056177;28;20067;-76
2022/04/19 00:54:26;;;;;;;11.13;4.40;;;6.90;55.80;;;;;;5054631;28;20025;-77
2022/04/19 00:56:53;;;;;;;8.65;4.25;;;6.80;56.00;;;;;;5056109;28;20086;-77
2022/04/19 00:59:21;;;;;;;7.47;4.00;;;6.80;56.30;;;;;;5056023;28;20022;-76
2022/04/19 01:01:46;;;;;;;7.32;4.38;;;6.60;56.60;;;;;;5056051;28;20017;-76
2022/04/19 01:04:12;;;;;;;6.45;3.78;;;6.40;57.50;;;;;;5055303;28;20382;-77
2022/04/19 01:06:38;;;;;;;10.77;4.05;;;6.40;57.80;;;;;;5055742;28;20061;-77
2022/04/19 01:09:03;;;;;;;7.57;4.50;;;6.30;58.40;;;;;;5055690;28;20025;-76
2022/04/19 01:14:14;;;;;;;8.43;4.03;;;6.30;57.70;;;;;;5055645;28;20032;-77
2022/04/19 01:16:42;;;;;;;6.65;3.70;;;6.40;57.60;;;;;;5055739;28;20025;-76
2022/04/19 01:19:15;;;;;;;8.65;4.20;;;6.40;57.60;;;;;;5055688;28;20483;-76
2022/04/19 01:21:44;;;;;;;7.78;4.28;;;6.30;57.90;;;;;;5055428;28;20390;-77
2022/04/19 01:24:15;;;;;;;9.10;4.28;;;6.20;58.40;;;;;;5055514;28;20383;-76
2022/04/19 01:26:41;;;;;;;6.65;3.67;;;6.20;58.40;;;;;;5055505;28;20052;-76
2022/04/19 01:29:09;;;;;;;5.43;3.47;;;6.20;58.60;;;;;;5054857;28;20376;-76
2022/04/19 01:31:34;;;;;;;7.22;3.45;;;6.10;58.50;;;;;;5055452;28;20024;-76
2022/04/19 01:34:01;;;;;;;6.07;3.88;;;6.10;58.50;;;;;;5055321;28;20024;-76
2022/04/19 01:36:26;;;;;;;9.20;3.83;;;6.10;58.40;;;;;;5055402;28;20021;-76
2022/04/19 01:38:52;;;;;;;6.22;3.38;;;6.20;58.20;;;;;;5055699;28;20044;-76
2022/04/19 01:41:17;;;;;;;6.57;3.55;;;6.20;58.00;;;;;;5055247;28;20040;-76
2022/04/19 01:43:44;;;;;;;7.00;3.92;;;6.20;57.70;;;;;;5055146;28;20514;-76
2022/04/19 01:46:11;;;;;;;12.20;4.30;;;6.20;57.90;;;;;;5055180;28;20467;-76
2022/04/19 01:48:36;;;;;;;10.88;4.18;;;6.10;57.80;;;;;;5054859;28;20017;-76
2022/04/19 01:51:02;;;;;;;9.98;3.85;;;6.10;57.50;;;;;;5054792;28;20025;-76
2022/04/19 01:53:28;;;;;;;10.93;3.80;;;6.20;57.20;;;;;;5055099;28;20094;-75
2022/04/19 01:55:54;;;;;;;6.55;4.05;;;6.20;56.40;;;;;;5054943;28;20466;-76
2022/04/19 01:58:19;;;;;;;6.00;3.75;;;6.30;56.90;;;;;;5057898;28;20029;-76
2022/04/19 02:00:45;;;;;;;6.78;3.38;;;6.10;57.50;;;;;;5055684;28;20032;-77
2022/04/19 02:03:11;;;;;;;5.47;3.33;;;6.00;58.10;;;;;;5055201;28;20106;-76
2022/04/19 02:05:36;;;;;;;5.55;3.50;;;5.90;59.10;;;;;;5054859;28;20482;-76
2022/04/19 02:08:02;;;;;;;6.43;3.03;;;5.80;59.70;;;;;;5054466;28;20131;-76
2022/04/19 02:10:27;;;;;;;7.97;3.58;;;5.80;59.40;;;;;;5054689;28;20078;-76
2022/04/19 02:12:53;;;;;;;6.75;3.60;;;5.90;58.90;;;;;;5054554;28;20032;-76
2022/04/19 02:15:19;;;;;;;5.07;3.35;;;6.10;58.30;;;;;;5054736;28;20052;-76
2022/04/19 02:17:47;;;;;;;5.10;3.00;;;6.10;57.80;;;;;;5054433;28;20021;-76
2022/04/19 02:20:14;;;;;;;6.80;3.90;;;6.20;57.30;;;;;;5054529;28;20021;-75
2022/04/19 02:22:40;;;;;;;7.20;3.60;;;6.20;57.40;;;;;;5054184;28;20033;-76
2022/04/19 02:25:06;;;;;;;6.57;3.65;;;6.20;57.30;;;;;;5054246;28;20040;-76
2022/04/19 02:27:33;;;;;;;6.43;3.08;;;6.20;57.20;;;;;;5054372;28;20027;-76
2022/04/19 02:30:04;;;;;;;8.05;3.65;;;6.20;57.40;;;;;;5054292;28;20017;-76
2022/04/19 02:32:30;;;;;;;6.95;3.35;;;6.10;57.30;;;;;;5054397;28;20047;-76
2022/04/19 02:34:57;;;;;;;7.28;3.25;;;6.10;57.30;;;;;;5054052;28;20037;-76
2022/04/19 02:37:22;;;;;;;7.45;3.63;;;6.20;57.00;;;;;;5054207;28;20063;-76
2022/04/19 02:39:49;;;;;;;5.47;3.40;;;6.20;57.00;;;;;;5054037;28;20021;-76
2022/04/19 02:42:16;;;;;;;7.13;3.25;;;6.20;57.30;;;;;;5053084;28;20025;-77
2022/04/19 02:44:42;;;;;;;5.70;3.72;;;6.10;57.10;;;;;;5053902;28;20065;-76
2022/04/19 02:47:07;;;;;;;5.10;2.88;;;6.10;57.20;;;;;;5053990;28;20494;-76
2022/04/19 02:49:34;;;;;;;4.72;2.83;;;6.10;57.00;;;;;;5053777;28;20099;-76
2022/04/19 02:52:00;;;;;;;4.55;2.95;;;6.20;56.90;;;;;;5053795;28;20029;-75
2022/04/19 02:54:25;;;;;;;6.03;3.30;;;6.20;56.80;;;;;;5053954;28;20049;-75
2022/04/19 02:56:51;;;;;;;4.72;3.17;;;6.20;56.60;;;;;;5053038;28;20498;-76
2022/04/19 02:59:17;;;;;;;5.90;2.97;;;6.20;56.60;;;;;;5054157;28;20029;-76
2022/04/19 03:01:43;;;;;;;5.35;3.35;;;6.20;56.90;;;;;;5053805;28;20078;-75
2022/04/19 03:04:08;;;;;;;6.32;3.65;;;6.20;56.90;;;;;;5053562;28;20471;-76
2022/04/19 03:06:34;;;;;;;7.60;3.83;;;6.00;57.10;;;;;;5053449;28;20056;-76
2022/04/19 03:09:00;;;;;;;6.80;3.63;;;6.00;57.30;;;;;;5053574;28;20131;-76
2022/04/19 03:11:26;;;;;;;6.82;3.15;;;5.90;57.50;;;;;;5053341;28;20029;-76
2022/04/19 03:13:52;;;;;;;6.85;3.72;;;5.90;57.40;;;;;;5053554;28;20039;-76
2022/04/19 03:16:17;;;;;;;6.30;3.65;;;5.90;57.40;;;;;;5053545;28;20490;-76
2022/04/19 03:18:43;;;;;;;5.95;3.40;;;5.90;57.60;;;;;;5053485;28;20025;-76
2022/04/19 03:21:10;;;;;;;6.68;3.70;;;5.80;57.90;;;;;;5053400;28;20025;-76
2022/04/19 03:29:09;;;;;;;7.55;3.22;;;5.70;58.10;;;;;;5053601;28;20506;-76
2022/04/19 03:31:34;;;;;;;6.07;3.88;;;5.70;58.30;;;;;;5051864;28;20494;-76
2022/04/19 03:34:04;;;;;;;5.05;3.17;;;5.70;58.70;;;;;;5053101;28;20021;-76
2022/04/19 03:36:30;;;;;;;5.88;3.60;;;5.70;58.80;;;;;;5053045;28;20032;-75
2022/04/19 03:38:56;;;;;;;5.82;3.63;;;5.80;58.30;;;;;;5052839;28;20441;-76
2022/04/19 03:41:22;;;;;;;5.43;3.33;;;5.80;57.90;;;;;;5052742;28;20029;-76
2022/04/19 03:43:48;;;;;;;4.72;3.33;;;5.90;58.00;;;;;;5052864;28;20531;-76
2022/04/19 03:46:14;;;;;;;6.15;3.85;;;5.70;58.00;;;;;;5052829;28;20497;-77
2022/04/19 03:48:39;;;;;;;5.50;3.45;;;5.70;58.10;;;;;;5052823;28;20025;-77
2022/04/19 03:51:05;;;;;;;5.75;3.72;;;5.70;58.40;;;;;;5052807;28;20029;-77
2022/04/19 03:53:31;;;;;;;6.55;3.38;;;5.70;58.60;;;;;;5052425;28;20100;-75
2022/04/19 03:55:58;;;;;;;7.32;3.40;;;5.60;58.30;;;;;;5052802;28;20463;-74
2022/04/19 03:58:25;;;;;;;5.22;3.30;;;5.60;58.40;;;;;;5052751;28;20017;-76
2022/04/19 04:00:51;;;;;;;8.93;3.75;;;5.60;58.20;;;;;;5051403;28;20025;-78
2022/04/19 04:03:16;;;;;;;17.67;5.28;;;5.70;62.80;;;;;;5052857;28;20485;-79
2022/04/19 04:05:42;;;;;;;10.27;4.50;;;6.10;69.50;;;;;;5052651;28;20199;-81
2022/04/19 04:08:07;;;;;;;9.15;3.35;;;6.40;68.10;;;;;;5052866;28;20056;-84
2022/04/19 04:10:33;;;;;;;4.15;2.65;;;6.60;62.10;;;;;;5052649;28;20021;-77
2022/04/19 04:13:00;;;;;;;7.20;3.88;;;6.60;57.40;;;;;;5052698;28;20430;-76
2022/04/19 04:15:25;;;;;;;6.95;3.70;;;6.50;56.50;;;;;;5052776;28;20029;-75
2022/04/19 04:17:51;;;;;;;6.82;3.30;;;6.20;56.70;;;;;;5052676;28;20048;-76
2022/04/19 04:20:17;;;;;;;7.10;3.30;;;6.10;57.60;;;;;;5052656;28;20029;-75
2022/04/19 04:22:42;;;;;;;6.38;3.53;;;5.90;58.20;;;;;;5052517;28;20101;-75
2022/04/19 04:25:08;;;;;;;5.55;3.47;;;5.80;58.60;;;;;;5052652;28;20548;-76
2022/04/19 04:27:34;;;;;;;5.55;3.50;;;5.70;58.90;;;;;;5052384;28;20655;-75
2022/04/19 04:30:00;;;;;;;5.32;3.30;;;5.70;59.20;;;;;;5052432;28;20091;-75
2022/04/19 04:32:25;;;;;;;6.18;3.17;;;5.60;59.20;;;;;;5052474;28;20472;-75
2022/04/19 04:34:51;;;;;;;6.97;3.42;;;5.60;59.20;;;;;;5052550;28;20078;-75
2022/04/19 04:37:16;;;;;;;8.52;3.85;;;5.60;59.40;;;;;;5052494;28;20044;-75
2022/04/19 04:39:42;;;;;;;6.75;3.25;;;5.60;59.40;;;;;;5052365;28;20032;-75
2022/04/19 04:42:08;;;;;;;7.07;3.30;;;5.50;59.40;;;;;;5052358;28;20028;-75
2022/04/19 04:44:34;;;;;;;5.63;3.20;;;5.60;59.40;;;;;;5052252;28;20036;-75
2022/04/19 04:49:44;;;;;;;5.30;3.25;;;5.60;59.40;;;;;;5052194;28;20040;-75
2022/04/19 04:52:14;;;;;;;7.75;4.28;;;5.40;60.00;;;;;;5052307;28;20056;-75
2022/04/19 04:54:41;;;;;;;6.70;3.95;;;5.40;60.40;;;;;;5050811;28;20064;-75
2022/04/19 04:57:07;;;;;;;7.55;4.07;;;5.40;60.40;;;;;;5052222;28;20021;-75
2022/04/19 04:59:34;;;;;;;7.68;5.13;;;5.50;60.20;;;;;;5052097;28;20025;-74
2022/04/19 05:02:00;;;;;;;10.95;4.75;;;5.50;60.40;;;;;;5052132;28;20071;-74
2022/04/19 05:04:26;;;;;;;7.35;4.07;;;5.60;59.90;;;;;;5052831;28;20043;-74
2022/04/19 05:06:52;;;;;;;8.93;4.07;;;5.60;60.30;;;;;;5055427;28;20060;-74
2022/04/19 05:09:18;;;;;;;8.20;3.72;;;5.60;59.70;;;;;;5054519;28;20053;-74
2022/04/19 05:11:46;;;;;;;8.95;4.57;;;5.50;59.60;;;;;;5055657;28;20033;-74
2022/04/19 05:14:13;;;;;;;8.25;4.70;;;5.50;59.80;;;;;;5055627;28;20023;-74
2022/04/19 05:16:39;;;;;;;8.20;3.70;;;5.50;59.50;;;;;;5055486;28;20021;-76
2022/04/19 05:19:04;;;;;;;8.63;4.18;;;5.60;59.50;;;;;;5055572;28;20405;-74
2022/04/19 05:21:30;;;;;;;6.85;4.13;;;5.60;59.40;;;;;;5055494;28;20032;-75
2022/04/19 05:23:56;;;;;;;7.05;4.15;;;5.70;59.30;;;;;;5055389;28;20036;-74
2022/04/19 05:26:28;;;;;;;6.88;3.60;;;5.70;59.10;;;;;;5055383;28;20375;-74
2022/04/19 05:28:54;;;;;;;7.05;4.30;;;5.80;59.00;;;;;;5055583;28;20055;-74
2022/04/19 05:31:20;;;;;;;8.35;3.88;;;5.80;58.70;;;;;;5055086;28;20025;-74
2022/04/19 05:33:46;;;;;;;12.40;4.40;;;5.90;58.50;;;;;;5055474;28;20024;-75
2022/04/19 05:36:12;;;;;;;11.27;4.38;;;5.90;58.40;;;;;;5055259;28;20033;-75
2022/04/19 05:38:38;;;;;;;9.80;4.03;;;5.90;58.40;;;;;;5055357;28;20395;-75
2022/04/19 05:41:04;;;;;;;8.02;4.28;;;6.00;58.50;;;;;;5055027;28;20045;-75
2022/04/19 05:43:30;;;;;;;10.63;4.00;;;5.90;59.00;;;;;;5053558;28;20122;-75
2022/04/19 05:45:57;;;;;;;9.43;4.43;;;5.70;60.30;;;;;;5054873;28;20068;-75
2022/04/19 05:48:24;;;;;;;10.80;4.68;;;5.80;61.20;;;;;;5054933;28;20032;-75
2022/04/19 05:50:49;;;;;;;7.97;4.90;;;5.70;61.20;;;;;;5054733;28;20024;-75
2022/04/19 05:53:15;;;;;;;6.93;3.95;;;5.80;61.00;;;;;;5054974;28;20021;-75
2022/04/19 05:55:40;;;;;;;12.13;4.38;;;5.90;60.70;;;;;;5054863;28;20021;-75
2022/04/19 05:58:06;;;;;;;5.70;3.67;;;6.00;60.30;;;;;;5054678;28;20086;-75
2022/04/19 06:00:32;;;;;;;9.90;3.80;;;6.20;60.00;;;;;;5054616;28;20039;-75
2022/04/19 06:05:41;;;;;;;14.57;4.40;;;6.50;59.20;;;;;;5054859;28;20075;-75
2022/04/19 06:08:07;;;;;;;8.95;3.72;;;6.60;58.50;;;;;;5054562;28;20080;-75
2022/04/19 06:10:33;;;;;;;8.18;3.80;;;6.80;57.90;;;;;;5054712;28;20045;-74
2022/04/19 06:12:58;;;;;;;7.68;4.00;;;7.00;57.50;;;;;;5054736;28;20029;-75
2022/04/19 06:15:24;;;;;;;6.60;3.47;;;7.10;57.30;;;;;;5054535;28;20048;-75
2022/04/19 06:17:49;;;;;;;8.02;4.60;;;7.20;56.70;;;;;;5054604;28;20017;-74
2022/04/19 06:20:15;;;;;;;7.97;4.30;;;7.50;56.30;;;;;;5054447;28;20032;-74
2022/04/19 06:22:41;;;;;;;6.50;3.78;;;7.60;55.40;;;;;;5054366;28;20024;-75
2022/04/19 06:25:07;;;;;;;11.55;4.90;;;7.80;54.80;;;;;;5054181;28;20025;-75
2022/04/19 06:27:33;;;;;;;11.88;5.15;;;7.90;54.40;;;;;;5054225;28;20021;-75
2022/04/19 06:29:59;;;;;;;9.75;4.07;;;8.00;53.80;;;;;;5054507;28;20029;-74
2022/04/19 06:32:25;;;;;;;9.18;4.40;;;8.00;53.10;;;;;;5053189;28;20474;-74
2022/04/19 06:34:52;;;;;;;6.13;3.92;;;8.10;52.60;;;;;;5056272;28;20095;-74
2022/04/19 06:37:19;;;;;;;7.28;3.80;;;8.30;52.50;;;;;;5062683;28;20047;-75
2022/04/19 06:39:45;;;;;;;5.75;3.30;;;8.30;51.90;;;;;;5065802;28;20072;-75
2022/04/19 06:42:11;;;;;;;10.50;4.05;;;8.50;51.90;;;;;;5059273;28;20471;-75
2022/04/19 06:44:36;;;;;;;8.18;4.13;;;8.70;51.50;;;;;;5056880;28;20120;-74
2022/04/19 06:47:02;;;;;;;5.85;3.38;;;8.80;50.90;;;;;;5054323;28;20048;-74
2022/04/19 06:49:28;;;;;;;11.75;4.47;;;9.00;50.70;;;;;;5053933;28;20107;-74
2022/04/19 06:51:54;;;;;;;6.28;3.65;;;9.10;50.10;;;;;;5053752;28;20029;-74
2022/04/19 06:54:20;;;;;;;6.78;3.45;;;9.30;49.80;;;;;;5053632;28;20460;-74
2022/04/19 06:56:45;;;;;;;5.00;3.63;;;9.40;49.20;;;;;;5053511;28;20082;-75
2022/04/19 06:59:12;;;;;;;6.40;3.58;;;9.50;49.20;;;;;;5053185;28;20021;-74
2022/04/19 07:01:40;;;;;;;4.35;2.50;;;9.60;49.20;;;;;;5052809;28;20021;-75
2022/04/19 07:04:07;;;;;;;7.13;3.47;;;9.80;48.80;;;;;;5052900;28;20028;-76
2022/04/19 07:06:34;;;;;;;7.88;2.90;;;10.00;47.90;;;;;;5052916;28;20045;-76
2022/04/19 07:08:59;;;;;;;5.22;2.60;;;10.20;47.20;;;;;;5052734;28;20479;-76
2022/04/19 07:11:25;;;;;;;4.00;2.75;;;10.30;46.70;;;;;;5053008;28;20060;-76
2022/04/19 07:13:51;;;;;;;5.70;3.25;;;10.40;46.20;;;;;;5052989;28;20024;-74
2022/04/19 07:16:16;;;;;;;6.60;2.70;;;10.40;46.10;;;;;;5052887;28;20043;-74
2022/04/19 07:18:42;;;;;;;3.85;2.53;;;10.50;46.00;;;;;;5053145;28;20070;-75
2022/04/19 07:26:40;;;;;;;6.50;2.78;;;10.90;44.20;;;;;;5052881;28;20036;-75
2022/04/19 07:29:10;;;;;;;5.60;2.47;;;11.00;43.80;;;;;;5052952;28;20017;-75
2022/04/19 07:31:37;;;;;;;7.40;3.40;;;11.20;42.80;;;;;;5053047;28;20050;-75
2022/04/19 07:34:03;;;;;;;6.15;3.63;;;11.30;42.40;;;;;;5053015;28;20493;-75
2022/04/19 07:36:29;;;;;;;5.63;3.42;;;11.40;41.50;;;;;;5052915;28;20029;-75
2022/04/19 07:38:57;;;;;;;6.63;3.28;;;11.50;41.10;;;;;;5052773;28;20017;-75
2022/04/19 07:41:23;;;;;;;5.60;3.15;;;11.60;42.40;;;;;;5052890;28;20021;-76
2022/04/19 07:43:49;;;;;;;6.63;3.40;;;11.50;41.70;;;;;;5051195;28;20025;-76
2022/04/19 07:46:18;;;;;;;4.38;2.90;;;11.50;42.30;;;;;;5052690;28;20029;-76
2022/04/19 07:48:48;;;;;;;5.45;3.65;;;11.60;42.00;;;;;;5052251;28;20039;-75
2022/04/19 07:51:14;;;;;;;8.45;3.35;;;11.70;40.70;;;;;;5052383;28;20107;-76
2022/04/19 07:53:40;;;;;;;3.90;3.22;;;11.70;40.70;;;;;;5052397;28;20386;-75
2022/04/19 07:56:06;;;;;;;5.90;2.97;;;11.80;39.70;;;;;;5050905;28;20112;-75
2022/04/19 07:58:32;;;;;;;5.78;3.20;;;11.80;40.10;;;;;;5052208;28;20067;-75
2022/04/19 08:01:01;;;;;;;5.78;3.00;;;11.90;40.60;;;;;;5052181;28;20112;-75
2022/04/19 08:03:28;;;;;;;6.75;3.97;;;12.10;40.00;;;;;;5052125;28;20059;-76
2022/04/19 08:05:54;;;;;;;8.75;3.95;;;12.20;38.60;;;;;;5051573;28;20057;-75
2022/04/19 08:08:23;;;;;;;4.90;3.25;;;12.30;37.80;;;;;;5052301;28;20032;-75
2022/04/19 08:10:50;;;;;;;5.63;3.28;;;12.50;39.60;;;;;;5052543;28;20025;-75
2022/04/19 08:13:16;;;;;;;4.85;3.15;;;12.70;39.80;;;;;;5052543;28;20399;-75
2022/04/19 08:15:42;;;;;;;6.00;3.40;;;12.70;39.00;;;;;;5052051;28;20136;-76
2022/04/19 08:18:13;;;;;;;9.82;3.40;;;12.90;38.10;;;;;;5052176;28;20025;-76
2022/04/19 08:20:39;;;;;;;6.13;3.33;;;13.00;38.40;;;;;;5052331;28;20041;-75
2022/04/19 08:23:05;;;;;;;5.93;3.47;;;13.10;39.00;;;;;;5052332;28;20414;-76
2022/04/19 08:25:32;;;;;;;4.60;3.15;;;13.20;38.70;;;;;;5052188;28;20045;-76
2022/04/19 08:27:58;;;;;;;11.88;4.28;;;13.40;38.90;;;;;;5052036;28;20013;-76
2022/04/19 08:30:24;;;;;;;5.38;3.90;;;13.50;37.30;;;;;;5051951;28;20025;-76
2022/04/19 08:32:50;;;;;;;8.40;4.03;;;13.70;37.40;;;;;;5052155;28;20021;-75
2022/04/19 08:35:17;;;;;;;6.68;3.90;;;13.80;36.50;;;;;;5052301;28;20108;-75
2022/04/19 08:37:42;;;;;;;8.60;4.13;;;13.80;37.50;;;;;;5051002;28;20033;-76
2022/04/19 08:40:11;;;;;;;4.55;3.45;;;14.00;37.50;;;;;;5054327;28;20025;-76
2022/04/19 08:42:38;;;;;;;6.50;4.18;;;14.10;36.30;;;;;;5056240;28;20051;-76
2022/04/19 08:45:07;;;;;;;5.95;4.07;;;14.30;35.10;;;;;;5056567;28;20040;-76
2022/04/19 08:47:37;;;;;;;10.23;4.53;;;14.20;35.00;;;;;;5056747;28;20017;-76
2022/04/19 08:50:05;;;;;;;7.43;3.97;;;14.30;35.00;;;;;;5056152;28;20045;-76
2022/04/19 08:52:32;;;;;;;7.28;4.32;;;14.50;36.50;;;;;;5056401;28;20017;-76
2022/04/19 08:57:43;;;;;;;15.98;4.93;;;14.60;33.50;;;;;;5056518;28;20039;-75
2022/04/19 09:00:10;;;;;;;6.50;3.72;;;14.60;34.10;;;;;;5055909;28;20021;-75
2022/04/19 09:02:39;;;;;;;8.32;4.40;;;14.70;34.10;;;;;;5055865;28;20031;-77
2022/04/19 09:05:26;;;;;;;8.02;3.15;;;14.80;34.20;;;;;;5055951;28;20060;-76
2022/04/19 09:07:53;;;;;;;5.75;3.10;;;14.90;33.50;;;;;;5055924;28;20049;-76
2022/04/19 09:10:27;;;;;;;11.00;6.88;;;15.00;33.50;;;;;;5061078;28;20051;-77
2022/04/19 09:13:01;;;;;;;6.25;3.50;;;15.20;33.10;;;;;;5056763;28;20052;-76
2022/04/19 09:15:43;;;;;;;5.30;3.10;;;15.10;32.80;;;;;;5056588;28;20051;-76
2022/04/19 09:18:26;;;;;;;8.07;3.00;;;15.30;33.40;;;;;;5056482;28;20070;-75
2022/04/19 09:20:52;;;;;;;4.45;2.72;;;15.40;32.70;;;;;;5056385;28;20029;-76
2022/04/19 09:23:19;;;;;;;5.90;3.72;;;15.60;32.30;;;;;;5056063;28;20438;-76
2022/04/19 09:25:45;;;;;;;7.70;3.78;;;15.70;31.70;;;;;;5055512;28;20080;-76
2022/04/19 09:28:18;;;;;;;8.57;4.13;;;15.80;31.40;;;;;;5055550;28;20506;-76
2022/04/19 09:30:48;;;;;;;6.10;3.83;;;15.50;31.50;;;;;;5055589;28;20029;-77
2022/04/19 09:33:15;;;;;;;6.75;3.75;;;15.60;33.00;;;;;;5055140;28;20021;-74
2022/04/19 09:35:47;;;;;;;7.72;3.67;;;15.60;31.50;;;;;;5055188;28;20025;-77
2022/04/19 09:38:13;;;;;;;5.60;2.63;;;15.60;32.40;;;;;;5054928;28;20039;-77
2022/04/19 09:40:45;;;;;;;5.00;2.15;;;15.80;33.20;;;;;;5055124;28;20417;-77
2022/04/19 09:43:24;;;;;;;4.47;2.17;;;16.10;30.40;;;;;;5055156;28;20025;-77
2022/04/19 09:46:02;;;;;;;8.85;4.70;;;16.40;30.50;;;;;;5055021;28;20029;-77
2022/04/19 09:48:32;;;;;;;4.97;2.95;;;16.50;29.90;;;;;;5055189;28;20096;-76
2022/04/19 09:51:02;;;;;;;3.17;2.28;;;16.70;29.40;;;;;;5054721;28;20428;-76
2022/04/19 09:53:30;;;;;;;2.47;1.92;;;16.90;29.40;;;;;;5055014;28;20426;-76
2022/04/19 09:55:57;;;;;;;2.95;1.77;;;17.10;29.50;;;;;;5054768;28;20050;-77
2022/04/19 09:58:25;;;;;;;5.20;3.22;;;17.30;29.20;;;;;;5055151;28;20051;-76
2022/04/19 10:00:52;;;;;;;4.82;2.63;;;17.40;28.40;;;;;;5055008;28;20446;-76
2022/04/19 10:08:52;;;;;;;4.85;2.63;;;17.80;28.50;;;;;;5055233;28;20028;-77
2022/04/19 10:11:18;;;;;;;3.65;2.33;;;17.90;25.70;;;;;;5054475;28;20112;-77
2022/04/19 10:13:45;;;;;;;3.40;2.53;;;17.90;26.00;;;;;;5054522;28;20021;-76
2022/04/19 10:16:12;;;;;;;3.90;2.50;;;17.80;25.20;;;;;;5054424;28;20523;-76
2022/04/19 10:18:43;;;;;;;3.50;2.35;;;17.80;26.20;;;;;;5054586;28;20032;-76
2022/04/19 10:21:10;;;;;;;6.95;2.30;;;18.00;26.40;;;;;;5054428;28;20013;-76
2022/04/19 10:23:41;;;;;;;3.40;1.85;;;18.10;25.70;;;;;;5054975;28;20382;-75
2022/04/19 10:26:24;;;;;;;3.13;2.05;;;18.40;25.60;;;;;;5054292;28;20029;-76
2022/04/19 10:28:54;;;;;;;2.85;1.80;;;18.60;25.00;;;;;;5054872;28;20079;-76
2022/04/19 10:31:31;;;;;;;2.00;1.73;;;18.50;24.20;;;;;;5055991;28;20021;-76
2022/04/19 10:34:04;;;;;;;3.35;2.13;;;18.70;25.50;;;;;;5056266;28;20061;-77
2022/04/19 10:36:35;;;;;;;2.03;1.63;;;18.80;25.40;;;;;;5055527;28;20029;-76
2022/04/19 10:39:13;;;;;;;3.38;1.98;;;19.00;23.90;;;;;;5054981;28;20097;-81
2022/04/19 10:41:53;;;;;;;3.83;1.88;;;19.00;24.10;;;;;;5065599;28;20028;-76
2022/04/19 10:44:23;;;;;;;2.42;1.90;;;19.00;23.70;;;;;;5072137;28;20036;-75
2022/04/19 10:47:15;;;;;;;3.65;1.83;;;19.10;23.70;;;;;;5062477;28;20025;-75
2022/04/19 10:49:57;;;;;;;3.03;1.80;;;19.10;21.90;;;;;;5064739;28;20024;-75
2022/04/19 10:52:38;;;;;;;2.92;1.65;;;19.00;22.20;;;;;;5062860;28;20021;-76
2022/04/19 10:55:08;;;;;;;3.05;1.95;;;18.60;21.80;;;;;;5066014;28;20430;-75
2022/04/19 11:00:31;;;;;;;2.17;1.52;;;18.50;24.00;;;;;;5055920;28;20379;-77
2022/04/19 11:03:05;;;;;;;2.78;1.88;;;18.90;25.10;;;;;;5055097;28;20028;-75
2022/04/19 11:05:41;;;;;;;4.88;2.03;;;19.00;23.60;;;;;;5060709;28;20113;-75
2022/04/19 11:08:19;;;;;;;4.75;1.70;;;19.20;23.10;;;;;;5064433;28;20168;-77
2022/04/19 11:10:46;;;;;;;5.72;1.77;;;19.20;23.90;;;;;;5053717;28;20032;-77
2022/04/19 11:13:12;;;;;;;2.70;1.60;;;19.40;25.50;;;;;;5053564;28;20024;-76
2022/04/19 11:15:38;;;;;;;3.70;1.98;;;19.80;24.10;;;;;;5053611;28;20018;-76
2022/04/19 11:18:22;;;;;;;3.28;2.00;;;19.50;21.60;;;;;;5053552;28;20025;-76
2022/04/19 11:20:52;;;;;;;3.33;2.40;;;19.20;22.00;;;;;;5053469;28;20040;-76
2022/04/19 11:23:19;;;;;;;4.05;1.77;;;19.30;22.40;;;;;;5053170;28;20032;-77
2022/04/19 11:25:45;;;;;;;2.80;1.80;;;19.00;22.60;;;;;;5053015;28;20033;-76
2022/04/19 11:28:11;;;;;;;3.92;1.98;;;19.30;24.10;;;;;;5053233;28;20044;-76
2022/04/19 11:30:43;;;;;;;6.40;2.40;;;19.40;24.30;;;;;;5053053;28;20020;-77
2022/04/19 11:33:08;;;;;;;2.47;1.65;;;19.70;23.50;;;;;;5051887;28;20028;-77
2022/04/19 11:35:34;;;;;;;4.25;1.73;;;19.90;23.40;;;;;;5052974;28;20374;-77
2022/04/19 11:38:10;;;;;;;2.95;1.60;;;20.20;23.80;;;;;;5053181;28;20021;-77
2022/04/19 11:49:07;;;;;;;4.18;1.50;;;21.10;19.70;;;;;;5052962;28;20432;-75
2022/04/19 11:51:35;;;;;;;3.38;1.60;;;20.60;19.60;;;;;;5052669;28;20434;-76
2022/04/19 11:54:02;;;;;;;2.08;1.67;;;20.50;19.00;;;;;;5052750;28;20493;-75
2022/04/19 11:56:29;;;;;;;2.22;1.27;;;20.50;18.80;;;;;;5051421;28;20025;-75
2022/04/19 11:58:59;;;;;;;2.55;1.65;;;20.50;19.60;;;;;;5051088;28;20056;-75
2022/04/19 12:01:24;;;;;;;2.35;1.58;;;20.80;20.00;;;;;;5052847;28;20534;-76
2022/04/19 12:03:50;;;;;;;5.03;1.45;;;21.00;20.70;;;;;;5052804;28;20111;-76
2022/04/19 12:06:18;;;;;;;1.65;1.20;;;20.90;19.80;;;;;;5052596;28;20045;-76
2022/04/19 12:08:46;;;;;;;2.90;1.90;;;20.80;18.90;;;;;;5052822;28;20104;-75
2022/04/19 12:11:17;;;;;;;3.35;1.60;;;21.10;19.50;;;;;;5052648;28;20067;-75
2022/04/19 12:13:44;;;;;;;2.88;1.60;;;21.40;18.80;;;;;;5053661;28;20042;-75
2022/04/19 12:16:29;;;;;;;2.45;1.67;;;21.50;17.60;;;;;;5056744;28;20032;-75
2022/04/19 12:18:55;;;;;;;3.83;2.00;;;21.00;17.30;;;;;;5057262;28;20032;-78
2022/04/19 12:21:40;;;;;;;1.52;1.17;;;20.90;17.50;;;;;;5056527;28;20021;-75
2022/04/19 12:24:26;;;;;;;2.60;1.27;;;20.40;19.40;;;;;;5056435;28;20025;-78
2022/04/19 12:27:12;;;;;;;12.88;2.15;;;20.70;19.90;;;;;;5056300;28;20029;-76
2022/04/19 12:30:12;;;;;;;2.40;1.00;;;20.80;17.80;;;;;;5056120;28;20394;-75
2022/04/19 12:32:58;;;;;;;6.47;2.00;;;21.10;19.60;;;;;;5056362;28;20428;-79
2022/04/19 12:35:34;;;;;;;2.33;1.48;;;20.90;19.60;;;;;;5056445;28;20421;-76
2022/04/19 12:38:03;;;;;;;;;;;21.40;19.40;;;;;;5056678;28;20053;-73
2022/04/19 12:40:29;;;;;;;3.55;1.52;;;21.60;18.90;;;;;;5055761;28;19912;-73
2022/04/19 12:42:54;;;;;;;3.13;1.80;;;21.30;18.60;;;;;;5055765;28;20025;-73
2022/04/19 12:45:20;;;;;;;2.35;1.60;;;21.10;19.80;;;;;;5055871;28;20040;-73
2022/04/19 12:47:47;;;;;;;3.08;1.80;;;21.60;19.00;;;;;;5054508;28;20036;-74
2022/04/19 12:50:16;;;;;;;6.10;1.67;;;21.90;18.20;;;;;;5056059;28;20029;-77
2022/04/19 12:52:42;;;;;;;2.85;1.60;;;21.20;18.40;;;;;;5055702;28;20410;-75
2022/04/19 12:55:11;;;;;;;2.60;1.40;;;21.20;19.70;;;;;;5055855;28;20036;-75
2022/04/19 12:57:38;;;;;;;2.70;1.40;;;21.60;20.00;;;;;;5056040;28;20013;-74
2022/04/19 13:00:05;;;;;;;2.97;1.42;;;22.00;18.80;;;;;;5055708;28;20403;-73
2022/04/19 13:02:31;;;;;;;3.80;1.40;;;22.30;18.10;;;;;;5055515;28;20017;-72
2022/04/19 13:04:57;;;;;;;2.25;1.50;;;22.70;17.70;;;;;;5055231;28;20025;-73
2022/04/19 13:13:03;;;;;;;4.63;1.02;;;22.60;16.60;;;;;;5055821;28;20130;-72
2022/04/19 13:15:33;;;;;;;2.50;1.20;;;22.80;16.80;;;;;;5055509;28;20474;-74
2022/04/19 13:17:59;;;;;;;5.30;1.42;;;22.90;16.30;;;;;;5055295;28;20124;-73
2022/04/19 13:20:25;;;;;;;1.60;1.17;;;23.30;16.40;;;;;;5055208;28;20483;-73
2022/04/19 13:22:50;;;;;;;2.38;1.13;;;23.50;16.10;;;;;;5055106;28;20051;-72
2022/04/19 13:25:20;;;;;;;3.17;1.20;;;23.60;15.20;;;;;;5054134;28;20037;-73
2022/04/19 13:27:46;;;;;;;2.88;1.33;;;23.60;15.30;;;;;;5054683;28;20040;-73
2022/04/19 13:30:19;;;;;;;2.33;1.10;;;23.60;15.00;;;;;;5055009;28;20139;-72
2022/04/19 13:32:46;;;;;;;4.45;1.50;;;23.50;15.20;;;;;;5054929;28;20044;-74
2022/04/19 13:35:13;;;;;;;2.92;1.20;;;23.60;15.50;;;;;;5054873;28;20054;-74
2022/04/19 13:40:23;;;;;;;1.98;1.38;;;23.20;15.50;;;;;;5055004;28;20044;-73
2022/04/19 13:42:49;;;;;;;4.57;1.10;;;23.00;15.50;;;;;;5055159;28;20017;-74